createdAt,value
2018-10-11T00:00:14.624Z,95511.67
2018-10-11T00:02:49.564Z,95503.83
2018-10-11T00:05:24.224Z,95509.36
2018-10-11T00:07:58.632Z,95516.91
2018-10-11T00:10:33.924Z,95523.81
2018-10-11T00:13:08.966Z,95527.22
2018-10-11T00:15:43.659Z,95531.45
2018-10-11T00:18:18.142Z,95529.03
2018-10-11T00:20:53.153Z,95527.31
2018-10-11T00:23:27.836Z,95528.03
2018-10-11T00:26:02.384Z,95529.84
2018-10-11T00:28:37.029Z,95525.23
2018-10-11T00:31:11.896Z,95530.73
2018-10-11T00:33:46.441Z,95523.72
2018-10-11T00:36:20.796Z,95528.73
2018-10-11T00:38:55.454Z,95528.65
2018-10-11T00:41:30.336Z,95527.75
2018-10-11T00:44:05.496Z,95530.81
2018-10-11T00:46:40.195Z,95527.82
2018-10-11T00:49:14.797Z,95527.32
2018-10-11T00:51:49.448Z,95518.17
2018-10-11T00:54:23.897Z,95520.48
2018-10-11T00:56:58.442Z,95516.22
2018-10-11T00:59:32.892Z,95510.27
2018-10-11T01:02:07.511Z,95512.28
2018-10-11T01:04:42.028Z,95512.26
2018-10-11T01:07:17.242Z,95512.63
2018-10-11T01:09:51.792Z,95515.69
2018-10-11T01:12:26.421Z,95523.01
2018-10-11T01:15:00.918Z,95515.94
2018-10-11T01:17:35.335Z,95512.47
2018-10-11T01:20:10.958Z,95516.51
2018-10-11T01:22:49.601Z,95512.03
2018-10-11T01:25:24.107Z,95509.62
2018-10-11T01:27:58.915Z,95508.38
2018-10-11T01:30:33.728Z,95505.68
2018-10-11T01:33:08.448Z,95509.78
2018-10-11T01:35:42.916Z,95501.63
2018-10-11T01:38:17.196Z,95503.27
2018-10-11T01:40:51.577Z,95503.97
2018-10-11T01:43:26.009Z,95503.23
2018-10-11T01:46:00.688Z,95507.38
2018-10-11T01:48:35.181Z,95501.37
2018-10-11T01:51:10.244Z,95491.22
2018-10-11T01:53:45.084Z,95490.03
2018-10-11T01:56:19.464Z,95490.50
2018-10-11T01:58:54.180Z,95492.53
2018-10-11T02:01:28.920Z,95492.23
2018-10-11T02:04:03.424Z,95485.77
2018-10-11T02:06:38.351Z,95486.69
2018-10-11T02:09:13.017Z,95486.76
2018-10-11T02:11:47.480Z,95496.66
2018-10-11T02:14:23.436Z,95496.61
2018-10-11T02:16:58.231Z,95499.78
2018-10-11T02:19:32.620Z,95492.32
2018-10-11T02:22:07.827Z,95496.59
2018-10-11T02:24:42.094Z,95490.98
2018-10-11T02:27:17.184Z,95489.97
2018-10-11T02:29:51.619Z,95497.28
2018-10-11T02:32:26.588Z,95497.47
2018-10-11T02:35:00.944Z,95500.63
2018-10-11T02:37:35.687Z,95501.12
2018-10-11T02:40:10.401Z,95498.53
2018-10-11T02:42:45.305Z,95489.34
2018-10-11T02:45:19.837Z,95489.09
2018-10-11T02:47:54.496Z,95501.16
2018-10-11T02:50:29.042Z,95499.88
2018-10-11T02:53:03.567Z,95496.40
2018-10-11T02:55:38.927Z,95490.12
2018-10-11T02:58:24.531Z,95480.59
2018-10-11T03:00:59.032Z,95484.34
2018-10-11T03:03:33.472Z,95483.54
2018-10-11T03:06:07.857Z,95476.71
2018-10-11T03:08:44.301Z,95485.38
2018-10-11T03:11:18.695Z,95480.40
2018-10-11T03:13:53.453Z,95482.84
2018-10-11T03:16:28.160Z,95478.48
2018-10-11T03:19:02.987Z,95486.84
2018-10-11T03:21:37.875Z,95481.24
2018-10-11T03:24:12.856Z,95478.33
2018-10-11T03:26:47.416Z,95474.95
2018-10-11T03:29:22.183Z,95484.12
2018-10-11T03:31:57.093Z,95479.28
2018-10-11T03:34:31.369Z,95482.78
2018-10-11T03:37:06.447Z,95480.67
2018-10-11T03:39:41.215Z,95488.73
2018-10-11T03:42:15.918Z,95491.34
2018-10-11T03:44:50.400Z,95486.20
2018-10-11T03:47:25.215Z,95484.69
2018-10-11T03:49:59.536Z,95490.95
2018-10-11T03:52:34.021Z,95478.50
2018-10-11T03:55:08.843Z,95488.17
2018-10-11T03:57:43.309Z,95493.44
2018-10-11T04:00:18.026Z,95495.91
2018-10-11T04:02:52.900Z,95494.30
2018-10-11T04:05:27.372Z,95488.72
2018-10-11T04:08:02.148Z,95483.42
2018-10-11T04:10:36.672Z,95484.41
2018-10-11T04:13:11.065Z,95483.73
2018-10-11T04:15:45.873Z,95487.37
2018-10-11T04:18:29.383Z,95488.72
2018-10-11T04:21:04.338Z,95492.92
2018-10-11T04:23:39.548Z,95493.55
2018-10-11T04:26:14.016Z,95501.39
2018-10-11T04:28:48.392Z,95483.02
2018-10-11T04:31:22.808Z,95487.90
2018-10-11T04:33:57.824Z,95489.33
2018-10-11T04:36:32.740Z,95498.59
2018-10-11T04:39:09.524Z,95498.79
2018-10-11T04:41:44.119Z,95497.03
2018-10-11T04:44:18.631Z,95495.61
2018-10-11T04:46:53.202Z,95502.59
2018-10-11T04:49:27.688Z,95504.25
2018-10-11T04:52:02.471Z,95503.81
2018-10-11T04:54:36.949Z,95501.27
2018-10-11T04:57:12.093Z,95502.96
2018-10-11T04:59:49.941Z,95498.91
2018-10-11T05:02:24.323Z,95502.66
2018-10-11T05:04:58.952Z,95515.89
2018-10-11T05:07:33.778Z,95514.73
2018-10-11T05:10:08.381Z,95514.11
2018-10-11T05:12:43.177Z,95522.86
2018-10-11T05:15:17.976Z,95523.98
2018-10-11T05:17:52.527Z,95521.74
2018-10-11T05:20:27.578Z,95528.86
2018-10-11T05:23:02.440Z,95527.47
2018-10-11T05:25:37.361Z,95527.25
2018-10-11T05:28:12.284Z,95539.27
2018-10-11T05:30:46.687Z,95541.38
2018-10-11T05:33:21.106Z,95540.30
2018-10-11T05:35:56.196Z,95538.05
2018-10-11T05:38:30.504Z,95540.47
2018-10-11T05:41:05.315Z,95547.23
2018-10-11T05:43:39.858Z,95543.45
2018-10-11T05:46:25.747Z,95539.91
2018-10-11T05:49:01.258Z,95535.16
2018-10-11T05:51:35.923Z,95534.42
2018-10-11T05:54:10.541Z,95532.31
2018-10-11T05:56:45.807Z,95537.82
2018-10-11T05:59:20.620Z,95536.02
2018-10-11T06:01:56.103Z,95538.18
2018-10-11T06:04:31.181Z,95537.59
2018-10-11T06:07:07.533Z,95536.92
2018-10-11T06:09:43.754Z,95537.42
2018-10-11T06:12:21.359Z,95530.39
2018-10-11T06:14:56.793Z,95539.16
2018-10-11T06:17:31.675Z,95549.09
2018-10-11T06:20:07.227Z,95549.08
2018-10-11T06:22:43.884Z,95548.16
2018-10-11T06:25:20.660Z,95548.78
2018-10-11T06:27:56.545Z,95555.53
2018-10-11T06:30:32.737Z,95550.11
2018-10-11T06:33:08.260Z,95548.75
2018-10-11T06:35:46.444Z,95543.38
2018-10-11T06:38:21.743Z,95553.41
2018-10-11T06:40:56.569Z,95555.81
2018-10-11T06:43:31.649Z,95560.28
2018-10-11T06:46:07.663Z,95556.45
2018-10-11T06:48:42.628Z,95556.97
2018-10-11T06:51:17.374Z,95559.08
2018-10-11T06:53:52.348Z,95562.80
2018-10-11T06:56:27.019Z,95561.98
2018-10-11T07:02:46.602Z,95562.51
2018-10-11T07:05:27.646Z,95558.28
2018-10-11T07:08:11.407Z,95546.19
2018-10-11T07:10:56.133Z,95549.24
2018-10-11T07:13:52.131Z,95552.30
2018-10-11T07:16:30.535Z,95549.45
2018-10-11T07:19:08.722Z,95552.69
2018-10-11T07:21:50.448Z,95558.17
2018-10-11T07:24:31.769Z,95564.48
2018-10-11T07:27:09.824Z,95556.61
2018-10-11T07:29:55.110Z,95560.70
2018-10-11T07:32:38.149Z,95568.52
2018-10-11T07:35:16.881Z,95569.61
2018-10-11T07:37:56.087Z,95573.14
2018-10-11T07:40:34.837Z,95572.23
2018-10-11T07:43:21.966Z,95573.70
2018-10-11T07:46:10.325Z,95565.20
2018-10-11T07:49:34.900Z,95568.84
2018-10-11T07:59:22.413Z,95561.86
2018-10-11T08:05:17.263Z,95567.67
2018-10-11T08:08:01.890Z,95561.81
2018-10-11T08:10:56.420Z,95564.19
2018-10-11T08:13:43.484Z,95570.99
2018-10-11T08:16:34.433Z,95560.58
2018-10-11T08:19:29.145Z,95566.34
2018-10-11T08:22:04.455Z,95564.16
2018-10-11T08:24:47.982Z,95560.66
2018-10-11T08:27:26.655Z,95562.27
2018-10-11T08:30:01.274Z,95565.80
2018-10-11T08:32:36.253Z,95566.83
2018-10-11T08:35:11.496Z,95564.23
2018-10-11T08:37:46.377Z,95560.81
2018-10-11T08:40:21.015Z,95561.30
2018-10-11T08:42:55.465Z,95559.01
2018-10-11T08:45:30.521Z,95558.91
2018-10-11T08:48:05.390Z,95562.11
2018-10-11T08:50:40.282Z,95549.80
2018-10-11T08:53:15.092Z,95550.22
2018-10-11T08:55:50.035Z,95550.32
2018-10-11T08:58:24.643Z,95553.12
2018-10-11T09:00:59.276Z,95549.72
2018-10-11T09:03:34.300Z,95549.47
2018-10-11T09:06:09.508Z,95554.30
2018-10-11T09:08:44.325Z,95550.94
2018-10-11T09:11:19.090Z,95558.52
2018-10-11T09:13:54.376Z,95554.53
2018-10-11T09:16:29.474Z,95540.91
2018-10-11T09:19:04.123Z,95543.13
2018-10-11T09:21:38.724Z,95547.56
2018-10-11T09:24:13.404Z,95545.41
2018-10-11T09:26:48.152Z,95550.92
2018-10-11T09:29:22.567Z,95548.33
2018-10-11T09:31:57.618Z,95551.68
2018-10-11T09:34:32.293Z,95548.24
2018-10-11T09:37:07.891Z,95553.57
2018-10-11T09:39:42.621Z,95544.84
2018-10-11T09:42:17.535Z,95544.95
2018-10-11T09:44:52.344Z,95548.61
2018-10-11T09:47:27.434Z,95542.26
2018-10-11T09:50:02.607Z,95539.92
2018-10-11T09:52:37.352Z,95543.36
2018-10-11T09:55:12.516Z,95546.08
2018-10-11T09:57:46.943Z,95541.58
2018-10-11T10:00:27.089Z,95550.19
2018-10-11T10:03:01.976Z,95547.88
2018-10-11T10:05:36.724Z,95540.75
2018-10-11T10:08:11.196Z,95542.58
2018-10-11T10:10:45.855Z,95545.78
2018-10-11T10:13:20.560Z,95546.05
2018-10-11T10:15:55.440Z,95547.09
2018-10-11T10:18:30.631Z,95544.70
2018-10-11T10:21:05.616Z,95546.53
2018-10-11T10:23:40.299Z,95544.67
2018-10-11T10:26:14.756Z,95541.74
2018-10-11T10:28:49.604Z,95540.97
2018-10-11T10:31:23.905Z,95540.43
2018-10-11T10:33:58.716Z,95535.13
2018-10-11T10:36:33.479Z,95538.85
2018-10-11T10:39:08.668Z,95533.24
2018-10-11T10:41:43.308Z,95539.09
2018-10-11T10:44:17.839Z,95539.35
2018-10-11T10:46:53.419Z,95535.09
2018-10-11T10:49:28.689Z,95538.56
2018-10-11T10:52:03.117Z,95533.75
2018-10-11T10:54:59.274Z,95535.31
2018-10-11T10:57:33.936Z,95535.42
2018-10-11T11:00:09.015Z,95541.02
2018-10-11T11:02:43.440Z,95533.25
2018-10-11T11:05:19.525Z,95534.69
2018-10-11T11:07:54.147Z,95534.23
2018-10-11T11:10:29.008Z,95536.59
2018-10-11T11:13:03.450Z,95535.33
2018-10-11T11:15:38.141Z,95531.47
2018-10-11T11:18:12.701Z,95529.08
2018-10-11T11:20:48.111Z,95525.20
2018-10-11T11:23:22.693Z,95525.66
2018-10-11T11:25:57.301Z,95521.59
2018-10-11T11:28:31.832Z,95518.77
2018-10-11T11:31:06.542Z,95517.34
2018-10-11T11:33:41.239Z,95519.60
2018-10-11T11:36:15.696Z,95513.78
2018-10-11T11:38:50.148Z,95518.91
2018-10-11T11:41:24.917Z,95516.92
2018-10-11T11:44:00.087Z,95514.50
2018-10-11T11:46:35.417Z,95514.25
2018-10-11T11:49:10.380Z,95521.47
2018-10-11T11:51:45.040Z,95512.94
2018-10-11T11:54:21.259Z,95516.02
2018-10-11T11:56:56.304Z,95516.78
2018-10-11T11:59:31.211Z,95516.65
2018-10-11T12:02:09.409Z,95513.69
2018-10-11T12:04:52.208Z,95511.22
2018-10-11T12:07:27.016Z,95508.51
2018-10-11T12:10:01.789Z,95504.50
2018-10-11T12:13:09.366Z,95507.98
2018-10-11T12:15:44.568Z,95504.34
2018-10-11T12:18:19.227Z,95502.13
2018-10-11T12:20:53.904Z,95499.78
2018-10-11T12:23:28.919Z,95501.89
2018-10-11T12:26:03.420Z,95503.98
2018-10-11T12:28:37.893Z,95502.58
2018-10-11T12:31:12.641Z,95509.96
2018-10-11T12:33:47.331Z,95506.16
2018-10-11T12:36:22.282Z,95500.16
2018-10-11T12:38:57.295Z,95502.53
2018-10-11T12:41:32.236Z,95502.39
2018-10-11T12:44:06.992Z,95503.43
2018-10-11T12:46:41.639Z,95498.56
2018-10-11T12:49:16.261Z,95499.41
2018-10-11T12:51:51.542Z,95497.34
2018-10-11T12:54:26.352Z,95496.55
2018-10-11T12:57:00.901Z,95490.00
2018-10-11T12:59:35.592Z,95494.88
2018-10-11T13:02:10.217Z,95494.08
2018-10-11T13:04:44.721Z,95490.28
2018-10-11T13:07:19.596Z,95493.23
2018-10-11T13:09:54.382Z,95494.57
2018-10-11T13:12:28.739Z,95498.53
2018-10-11T13:15:04.477Z,95489.78
2018-10-11T13:17:42.814Z,95494.81
2018-10-11T13:20:13.688Z,95492.45
2018-10-11T13:22:48.259Z,95488.34
2018-10-11T13:25:23.849Z,95484.69
2018-10-11T13:27:58.525Z,95488.55
2018-10-11T13:30:32.947Z,95486.50
2018-10-11T13:33:08.064Z,95495.30
2018-10-11T13:35:42.491Z,95493.95
2018-10-11T13:38:17.176Z,95494.27
2018-10-11T13:40:55.812Z,95486.95
2018-10-11T13:43:27.066Z,95490.89
2018-10-11T13:46:02.994Z,95488.36
2018-10-11T13:48:36.563Z,95490.79
2018-10-11T13:51:11.541Z,95493.85
2018-10-11T13:53:49.948Z,95491.55
2018-10-11T13:56:20.806Z,95493.27
2018-10-11T13:58:55.812Z,95492.82
2018-10-11T14:01:30.415Z,95493.62
2018-10-11T14:04:05.699Z,95492.30
2018-10-11T14:06:40.688Z,95485.12
2018-10-11T14:09:16.546Z,95489.09
2018-10-11T14:11:51.943Z,95491.72
2018-10-11T14:14:26.359Z,95491.16
2018-10-11T14:17:00.681Z,95500.42
2018-10-11T14:19:35.160Z,95501.16
2018-10-11T14:22:09.781Z,95502.95
2018-10-11T14:24:44.244Z,95499.47
2018-10-11T14:27:19.292Z,95495.64
2018-10-11T14:29:54.122Z,95496.91
2018-10-11T14:32:28.974Z,95494.50
2018-10-11T14:35:03.641Z,95491.56
2018-10-11T14:37:38.497Z,95499.59
2018-10-11T14:40:13.103Z,95492.47
2018-10-11T14:42:48.162Z,95493.54
2018-10-11T14:45:22.527Z,95491.37
2018-10-11T14:47:56.988Z,95493.23
2018-10-11T14:50:32.369Z,95493.77
2018-10-11T14:53:07.215Z,95494.67
2018-10-11T14:55:42.280Z,95498.18
2018-10-11T14:58:17.177Z,95497.41
2018-10-11T15:00:51.636Z,95494.48
2018-10-11T15:03:26.704Z,95499.90
2018-10-11T15:06:01.460Z,95500.55
2018-10-11T15:08:36.841Z,95498.75
2018-10-11T15:11:11.567Z,95495.06
2018-10-11T15:13:46.706Z,95501.94
2018-10-11T15:16:21.328Z,95498.71
2018-10-11T15:18:56.257Z,95508.95
2018-10-11T15:21:30.681Z,95508.86
2018-10-11T15:24:05.465Z,95505.38
2018-10-11T15:26:40.151Z,95513.78
2018-10-11T15:29:14.904Z,95513.40
2018-10-11T15:31:49.984Z,95521.20
2018-10-11T15:34:24.408Z,95520.64
2018-10-11T15:36:59.036Z,95521.69
2018-10-11T15:39:33.352Z,95522.67
2018-10-11T15:42:08.369Z,95520.30
2018-10-11T15:44:43.513Z,95521.09
2018-10-11T15:47:18.047Z,95521.22
2018-10-11T15:49:52.654Z,95516.09
2018-10-11T15:52:27.399Z,95517.88
2018-10-11T15:55:02.019Z,95521.27
2018-10-11T15:57:36.575Z,95528.30
2018-10-11T16:00:11.381Z,95523.89
2018-10-11T16:02:45.672Z,95525.12
2018-10-11T16:05:20.684Z,95524.58
2018-10-11T16:07:55.565Z,95530.64
2018-10-11T16:10:30.299Z,95535.28
2018-10-11T16:13:04.644Z,95535.20
2018-10-11T16:15:38.937Z,95537.14
2018-10-11T16:18:13.608Z,95540.86
2018-10-11T16:20:48.786Z,95539.62
2018-10-11T16:23:29.376Z,95534.55
2018-10-11T16:26:04.805Z,95539.06
2018-10-11T16:28:39.144Z,95538.34
2018-10-11T16:31:13.734Z,95545.73
2018-10-11T16:33:48.221Z,95550.70
2018-10-11T16:36:23.659Z,95544.28
2018-10-11T16:38:58.832Z,95550.77
2018-10-11T16:41:33.420Z,95560.07
2018-10-11T16:44:07.858Z,95567.82
2018-10-11T16:46:42.732Z,95564.98
2018-10-11T16:49:17.283Z,95567.63
2018-10-11T16:51:52.190Z,95568.42
2018-10-11T16:54:27.086Z,95580.99
2018-10-11T16:57:01.824Z,95577.28
2018-10-11T16:59:36.384Z,95584.38
2018-10-11T17:02:13.671Z,95579.63
2018-10-11T17:04:48.839Z,95588.16
2018-10-11T17:07:23.643Z,95583.74
2018-10-11T17:09:58.422Z,95590.16
2018-10-11T17:12:33.521Z,95593.67
2018-10-11T17:15:08.269Z,95589.67
2018-10-11T17:17:43.264Z,95594.14
2018-10-11T17:20:18.024Z,95603.20
2018-10-11T17:22:53.187Z,95598.25
2018-10-11T17:25:27.972Z,95601.16
2018-10-11T17:28:02.824Z,95598.78
2018-10-11T17:30:37.565Z,95601.80
2018-10-11T17:33:12.665Z,95597.20
2018-10-11T17:35:50.397Z,95598.96
2018-10-11T17:38:25.367Z,95605.47
2018-10-11T17:41:01.016Z,95604.33
2018-10-11T17:43:35.954Z,95600.89
2018-10-11T17:46:10.372Z,95602.11
2018-10-11T17:48:44.773Z,95595.94
2018-10-11T17:51:19.480Z,95595.36
2018-10-11T17:53:54.188Z,95600.48
2018-10-11T17:56:31.296Z,95602.22
2018-10-11T17:59:07.772Z,95602.48
2018-10-11T18:01:42.792Z,95597.64
2018-10-11T18:04:17.482Z,95597.16
2018-10-11T18:06:52.098Z,95596.71
2018-10-11T18:09:26.703Z,95607.06
2018-10-11T18:12:01.256Z,95608.89
2018-10-11T18:14:35.788Z,95611.30
2018-10-11T18:17:10.654Z,95620.20
2018-10-11T18:19:45.205Z,95616.70
2018-10-11T18:22:20.702Z,95617.86
2018-10-11T18:24:55.288Z,95615.33
2018-10-11T18:27:30.061Z,95627.28
2018-10-11T18:30:05.906Z,95626.72
2018-10-11T18:32:40.583Z,95624.92
2018-10-11T18:35:18.369Z,95629.17
2018-10-11T18:37:58.364Z,95633.91
2018-10-11T18:40:36.404Z,95630.89
2018-10-11T18:43:11.152Z,95633.31
2018-10-11T18:45:45.808Z,95639.08
2018-10-11T18:48:20.273Z,95638.63
2018-10-11T18:50:54.809Z,95641.19
2018-10-11T18:53:30.608Z,95638.13
2018-10-11T18:56:05.948Z,95643.45
2018-10-11T18:58:40.516Z,95636.09
2018-10-11T19:01:15.088Z,95631.47
2018-10-11T19:03:49.692Z,95634.83
2018-10-11T19:06:24.573Z,95635.48
2018-10-11T19:08:59.416Z,95641.10
2018-10-11T19:11:34.209Z,95642.70
2018-10-11T19:14:09.427Z,95646.35
2018-10-11T19:16:43.884Z,95644.75
2018-10-11T19:19:18.882Z,95652.81
2018-10-11T19:22:01.806Z,95653.17
2018-10-11T19:24:36.684Z,95649.30
2018-10-11T19:27:16.414Z,95655.91
2018-10-11T19:29:59.830Z,95664.35
2018-10-11T19:32:38.496Z,95663.08
2018-10-11T19:35:13.287Z,95662.92
2018-10-11T19:37:47.840Z,95658.54
2018-10-11T19:40:22.295Z,95656.53
2018-10-11T19:42:57.068Z,95661.78
2018-10-11T19:45:32.564Z,95665.92
2018-10-11T19:48:07.013Z,95660.90
2018-10-11T19:50:41.992Z,95664.80
2018-10-11T19:53:16.688Z,95664.91
2018-10-11T19:55:51.623Z,95664.75
2018-10-11T19:58:26.039Z,95661.41
2018-10-11T20:01:01.142Z,95669.94
2018-10-11T20:03:36.061Z,95670.38
2018-10-11T20:06:10.927Z,95669.03
2018-10-11T20:08:46.308Z,95672.35
2018-10-11T20:11:21.253Z,95675.59
2018-10-11T20:13:55.736Z,95679.73
2018-10-11T20:16:30.394Z,95682.48
2018-10-11T20:19:05.493Z,95684.09
2018-10-11T20:21:40.510Z,95681.69
2018-10-11T20:24:15.352Z,95681.17
2018-10-11T20:26:49.973Z,95685.62
2018-10-11T20:29:24.543Z,95685.11
2018-10-11T20:31:59.324Z,95684.59
2018-10-11T20:34:33.860Z,95686.72
2018-10-11T20:37:09.248Z,95688.70
2018-10-11T20:39:44.167Z,95695.04
2018-10-11T20:42:19.229Z,95694.05
2018-10-11T20:44:53.617Z,95695.84
2018-10-11T20:47:31.800Z,95693.22
2018-10-11T20:50:06.828Z,95692.34
2018-10-11T20:52:41.296Z,95700.39
2018-10-11T20:55:15.880Z,95700.91
2018-10-11T20:57:50.713Z,95709.17
2018-10-11T21:00:25.265Z,95715.83
2018-10-11T21:02:59.882Z,95716.73
2018-10-11T21:05:34.729Z,95715.72
2018-10-11T21:08:09.584Z,95719.77
2018-10-11T21:10:44.024Z,95722.17
2018-10-11T21:13:18.888Z,95724.29
2018-10-11T21:15:53.277Z,95719.16
2018-10-11T21:18:27.973Z,95727.53
2018-10-11T21:21:02.923Z,95726.44
2018-10-11T21:23:37.605Z,95730.84
2018-10-11T21:26:12.256Z,95727.23
2018-10-11T21:28:47.082Z,95735.19
2018-10-11T21:31:22.429Z,95731.47
2018-10-11T21:33:57.268Z,95731.35
2018-10-11T21:36:32.284Z,95735.80
2018-10-11T21:39:08.950Z,95737.50
2018-10-11T21:41:44.417Z,95730.36
2018-10-11T21:44:18.973Z,95735.89
2018-10-11T21:46:53.667Z,95729.55
2018-10-11T21:49:28.504Z,95733.91
2018-10-11T21:52:02.958Z,95732.59
2018-10-11T21:54:40.344Z,95735.59
2018-10-11T21:57:16.673Z,95731.16
2018-10-11T21:59:53.942Z,95732.47
2018-10-11T22:02:28.671Z,95744.27
2018-10-11T22:05:03.388Z,95749.64
2018-10-11T22:07:38.244Z,95750.73
2018-10-11T22:10:12.792Z,95754.08
2018-10-11T22:12:47.615Z,95754.59
2018-10-11T22:15:22.499Z,95751.16
2018-10-11T22:17:57.160Z,95759.91
2018-10-11T22:20:32.092Z,95757.80
2018-10-11T22:23:08.524Z,95761.95
2018-10-11T22:25:43.196Z,95761.86
2018-10-11T22:28:17.981Z,95764.48
2018-10-11T22:30:52.847Z,95766.01
2018-10-11T22:33:27.807Z,95763.39
2018-10-11T22:36:02.281Z,95770.03
2018-10-11T22:38:37.404Z,95771.94
2018-10-11T22:41:12.413Z,95771.34
2018-10-11T22:43:47.452Z,95777.18
2018-10-11T22:46:22.172Z,95775.69
2018-10-11T22:48:56.812Z,95778.49
2018-10-11T22:51:31.123Z,95778.32
2018-10-11T22:54:05.928Z,95780.47
2018-10-11T22:56:40.696Z,95781.48
2018-10-11T22:59:15.119Z,95783.60
2018-10-11T23:01:49.611Z,95784.49
2018-10-11T23:04:24.367Z,95794.77
2018-10-11T23:06:58.905Z,95794.98
2018-10-11T23:09:33.416Z,95797.39
2018-10-11T23:12:07.930Z,95795.78
2018-10-11T23:14:42.490Z,95795.69
2018-10-11T23:17:17.732Z,95800.13
2018-10-11T23:19:52.591Z,95801.66
2018-10-11T23:22:26.969Z,95805.28
2018-10-11T23:25:01.507Z,95809.52
2018-10-11T23:27:35.863Z,95814.67
2018-10-11T23:30:11.116Z,95820.53
2018-10-11T23:32:45.732Z,95821.34
2018-10-11T23:35:20.620Z,95826.19
2018-10-11T23:37:55.741Z,95817.61
2018-10-11T23:40:30.761Z,95817.31
2018-10-11T23:43:05.936Z,95822.65
2018-10-11T23:45:40.721Z,95827.29
2018-10-11T23:48:15.529Z,95824.05
2018-10-11T23:50:50.219Z,95836.25
2018-10-11T23:53:24.700Z,95835.06
2018-10-11T23:55:59.519Z,95840.09
2018-10-11T23:58:33.960Z,95834.58
